Time;durP1;ratioP1;P1;durP2;ratioP2;P2;SDS_P1;SDS_P2;PMS_P1;PMS_P2;Temp;Humidity;BMP_temperature;BMP_pressure;BME280_temperature;BME280_humidity;BME280_pressure;Samples;Min_cycle;Max_cycle;Signal;HPM_P1;HPM_P2
2023/10/20 00:02:04;;;;;;;21.40;16.90;;;;;;;11.95;64.36;99361.30;105494;1254;63840;-53
2023/10/20 00:04:33;;;;;;;22.50;17.50;;;;;;;11.92;64.36;99360.38;105317;1251;60506;-53
2023/10/20 00:07:02;;;;;;;24.80;17.20;;;;;;;11.90;64.41;99361.48;105612;1256;60367;-53
2023/10/20 00:09:30;;;;;;;20.70;17.20;;;;;;;11.93;64.50;99358.89;105282;1258;64912;-55
2023/10/20 00:11:58;;;;;;;19.50;15.00;;;;;;;11.98;64.33;99356.47;105926;1257;72369;-53
2023/10/20 00:14:26;;;;;;;22.80;16.50;;;;;;;12.02;64.41;99354.25;105859;1257;63842;-53
2023/10/20 00:16:54;;;;;;;20.00;15.70;;;;;;;12.04;64.50;99346.81;105457;1254;60902;-53
2023/10/20 00:19:22;;;;;;;20.50;16.80;;;;;;;12.04;64.50;99343.52;105399;1256;60366;-53
2023/10/20 00:21:51;;;;;;;22.10;17.40;;;;;;;12.02;64.53;99341.11;105458;1258;65300;-53
2023/10/20 00:24:19;;;;;;;22.70;17.80;;;;;;;11.98;64.51;99335.69;106953;1251;63834;-53
2023/10/20 00:26:46;;;;;;;21.30;16.50;;;;;;;11.96;64.53;99331.88;106198;1256;62501;-53
2023/10/20 00:29:14;;;;;;;21.00;16.80;;;;;;;11.98;64.42;99333.58;106380;1251;60578;-53
2023/10/20 00:31:42;;;;;;;21.40;16.30;;;;;;;12.01;64.53;99332.98;105516;1251;60443;-53
2023/10/20 00:34:11;;;;;;;20.00;16.00;;;;;;;12.02;64.47;99330.91;105507;1256;64938;-53
2023/10/20 00:36:38;;;;;;;19.60;16.40;;;;;;;12.02;64.56;99327.89;105617;1257;60454;-53
2023/10/20 00:39:06;;;;;;;21.70;16.00;;;;;;;12.03;64.77;99329.77;105377;1254;63736;-54
2023/10/20 00:41:35;;;;;;;22.70;18.20;;;;;;;12.04;64.90;99328.61;105477;1251;60444;-53
2023/10/20 00:44:03;;;;;;;21.70;16.00;;;;;;;12.03;64.97;99325.81;105650;1258;60447;-54
2023/10/20 00:46:31;;;;;;;19.60;15.80;;;;;;;12.06;64.88;99321.48;105737;1251;63658;-54
2023/10/20 00:48:59;;;;;;;21.10;15.00;;;;;;;12.11;64.83;99321.75;105463;1257;61364;-55
2023/10/20 00:51:26;;;;;;;19.20;15.10;;;;;;;12.15;64.81;99317.48;105429;1256;62735;-53
2023/10/20 00:53:57;;;;;;;21.50;16.00;;;;;;;12.17;64.82;99315.84;105820;1259;60593;-54
2023/10/20 00:56:25;;;;;;;21.00;16.60;;;;;;;12.16;65.02;99314.48;105287;1251;60600;-52
2023/10/20 00:58:53;;;;;;;23.10;17.50;;;;;;;12.15;65.09;99309.56;105803;1255;64940;-54
2023/10/20 01:01:20;;;;;;;21.90;15.50;;;;;;;12.12;65.16;99307.54;105285;1251;61368;-52
2023/10/20 01:03:49;;;;;;;20.50;14.80;;;;;;;12.10;65.33;99303.02;105392;1254;62452;-53
2023/10/20 01:06:16;;;;;;;23.10;15.40;;;;;;;12.13;65.23;99302.02;106023;1255;60501;-52
2023/10/20 01:08:44;;;;;;;16.90;13.30;;;;;;;12.17;65.14;99300.33;105356;1251;60642;-53
2023/10/20 01:11:12;;;;;;;17.30;14.10;;;;;;;12.20;65.25;99296.68;105441;1254;63631;-51
2023/10/20 01:13:40;;;;;;;20.30;15.60;;;;;;;12.21;65.29;99297.15;105255;1251;61392;-51
2023/10/20 01:16:07;;;;;;;18.60;14.50;;;;;;;12.21;65.51;99296.58;105227;1260;62499;-53
2023/10/20 01:18:35;;;;;;;22.90;16.50;;;;;;;12.23;65.62;99292.92;105677;1256;60549;-53
2023/10/20 01:21:04;;;;;;;21.80;15.70;;;;;;;12.23;65.71;99289.39;105368;1251;60568;-51
2023/10/20 01:23:31;;;;;;;20.00;14.20;;;;;;;12.26;65.67;99287.95;105440;1251;64858;-53
2023/10/20 01:25:59;;;;;;;18.20;13.90;;;;;;;12.32;65.65;99289.52;105383;1259;61532;-52
2023/10/20 01:28:27;;;;;;;18.80;14.00;;;;;;;12.35;65.65;99289.38;105226;1257;63673;-53
2023/10/20 01:30:56;;;;;;;19.70;15.00;;;;;;;12.35;65.74;99284.42;105412;1259;60546;-50
2023/10/20 01:33:25;;;;;;;19.40;14.10;;;;;;;12.33;65.75;99281.61;105822;1254;60562;-53
2023/10/20 01:35:53;;;;;;;18.30;15.70;;;;;;;12.32;65.90;99284.61;105855;1259;64920;-52
2023/10/20 01:38:21;;;;;;;18.90;14.10;;;;;;;12.32;66.00;99282.50;106085;1258;61337;-53
2023/10/20 01:40:49;;;;;;;16.60;12.90;;;;;;;12.37;65.92;99286.50;105333;1251;62430;-52
2023/10/20 01:43:16;;;;;;;19.60;13.50;;;;;;;12.42;65.87;99284.40;105423;1254;60926;-52
2023/10/20 01:45:45;;;;;;;18.10;13.90;;;;;;;12.47;65.88;99280.52;105404;1256;62254;-53
2023/10/20 01:48:13;;;;;;;18.00;13.80;;;;;;;12.49;66.03;99282.41;105333;1259;63640;-54
2023/10/20 01:50:41;;;;;;;20.60;14.40;;;;;;;12.50;66.10;99277.92;105580;1256;60485;-54
2023/10/20 01:53:09;;;;;;;19.70;14.60;;;;;;;12.49;65.90;99276.66;105465;1254;64137;-54
2023/10/20 01:55:39;;;;;;;17.20;14.10;;;;;;;12.46;65.87;99275.55;105396;1252;60546;-53
2023/10/20 01:58:07;;;;;;;17.10;13.30;;;;;;;12.50;65.79;99272.64;105369;1252;60523;-55
2023/10/20 02:00:35;;;;;;;16.60;12.70;;;;;;;12.55;65.81;99267.54;105371;1251;63617;-50
2023/10/20 02:03:03;;;;;;;17.10;13.10;;;;;;;12.59;65.74;99264.33;105608;1259;60481;-57
2023/10/20 02:05:31;;;;;;;17.00;12.90;;;;;;;12.59;65.88;99256.73;105654;1259;62513;-57
2023/10/20 02:07:59;;;;;;;17.70;13.70;;;;;;;12.58;65.95;99250.73;105268;1254;60584;-57
2023/10/20 02:10:27;;;;;;;20.60;14.00;;;;;;;12.58;66.10;99252.60;105455;1257;60112;-59
2023/10/20 02:12:55;;;;;;;18.00;13.50;;;;;;;12.60;66.02;99253.33;105504;1255;63697;-59
2023/10/20 02:15:22;;;;;;;16.90;13.40;;;;;;;12.63;65.98;99254.56;105810;1258;62231;-58
2023/10/20 02:17:50;;;;;;;20.60;13.50;;;;;;;12.68;65.81;99255.21;105445;1251;62449;-58
2023/10/20 02:20:22;;;;;;;21.00;13.80;;;;;;;12.71;65.73;99257.09;105815;1251;60613;-57
2023/10/20 02:22:50;;;;;;;20.40;14.40;;;;;;;12.69;65.71;99254.06;106015;1252;60457;-57
2023/10/20 02:25:18;;;;;;;21.50;15.30;;;;;;;12.68;65.71;99254.39;105325;1259;64957;-57
2023/10/20 02:27:47;;;;;;;18.10;14.90;;;;;;;12.64;65.72;99251.85;105569;1251;61583;-56
2023/10/20 02:30:15;;;;;;;18.70;14.90;;;;;;;12.59;65.75;99247.02;105572;1254;63754;-58
2023/10/20 02:32:43;;;;;;;19.20;13.90;;;;;;;12.58;65.67;99238.51;105556;1259;60545;-58
2023/10/20 02:35:12;;;;;;;18.10;14.00;;;;;;;12.59;65.67;99238.55;105447;1257;60386;-55
2023/10/20 02:37:40;;;;;;;22.20;15.30;;;;;;;12.62;65.75;99238.66;105605;1257;63794;-55
2023/10/20 02:40:08;;;;;;;19.10;14.50;;;;;;;12.64;65.88;99235.42;105543;1251;61377;-57
2023/10/20 02:42:35;;;;;;;20.00;15.60;;;;;;;12.65;66.00;99234.47;105654;1256;62496;-56
2023/10/20 02:45:09;;;;;;;21.30;15.50;;;;;;;12.66;66.12;99227.14;105434;1255;60536;-55
2023/10/20 02:47:37;;;;;;;18.30;15.10;;;;;;;12.66;66.09;99225.60;105670;1252;60648;-57
2023/10/20 02:50:06;;;;;;;17.90;13.80;;;;;;;12.70;66.12;99223.21;105785;1251;64929;-57
2023/10/20 02:52:34;;;;;;;17.80;13.70;;;;;;;12.77;65.99;99222.63;105735;1257;60579;-57
2023/10/20 02:55:02;;;;;;;19.40;15.30;;;;;;;12.80;65.94;99217.87;105363;1254;63733;-57
2023/10/20 02:57:29;;;;;;;19.60;14.70;;;;;;;12.79;65.92;99213.86;105837;1254;60529;-59
2023/10/20 02:59:57;;;;;;;17.30;14.40;;;;;;;12.70;66.03;99206.16;105501;1256;60628;-59
2023/10/20 03:02:26;;;;;;;17.90;14.40;;;;;;;12.64;66.39;99207.44;105453;1257;63632;-58
2023/10/20 03:04:54;;;;;;;16.70;13.00;;;;;;;12.64;66.48;99206.23;105992;1257;61944;-57
2023/10/20 03:07:27;;;;;;;15.80;12.80;;;;;;;12.67;66.34;99203.30;105490;1259;62518;-58
2023/10/20 03:09:55;;;;;;;16.40;12.50;;;;;;;12.69;66.39;99197.81;106008;1254;60551;-60
2023/10/20 03:12:22;;;;;;;16.70;12.90;;;;;;;12.70;66.34;99191.41;105308;1258;60364;-57
2023/10/20 03:14:50;;;;;;;20.20;13.50;;;;;;;12.73;66.41;99189.59;105495;1251;65442;-58
2023/10/20 03:17:18;;;;;;;17.70;13.90;;;;;;;12.77;66.35;99191.50;105308;1253;61527;-59
2023/10/20 03:19:45;;;;;;;18.20;14.50;;;;;;;12.78;66.38;99190.72;105401;1257;63797;-58
2023/10/20 03:22:13;;;;;;;19.30;13.70;;;;;;;12.78;66.44;99187.50;105012;1254;536644;-58
2023/10/20 03:26:31;;;;;;;17.30;12.90;;;;;;;12.67;67.00;99187.80;102364;1290;601542;-57
2023/10/20 03:28:59;;;;;;;16.80;13.20;;;;;;;12.92;66.19;99184.23;104636;1267;59129;-57
2023/10/20 03:31:27;;;;;;;17.00;12.80;;;;;;;12.94;66.18;99180.34;105083;1263;59470;-55
2023/10/20 03:33:55;;;;;;;17.50;12.10;;;;;;;12.93;66.41;99178.98;104979;1262;63801;-56
2023/10/20 03:36:23;;;;;;;18.20;13.50;;;;;;;12.93;66.45;99183.02;105603;1258;61317;-57
2023/10/20 03:38:50;;;;;;;17.80;12.00;;;;;;;12.94;66.47;99182.61;104882;1258;219067;-57
2023/10/20 03:41:18;;;;;;;17.00;12.00;;;;;;;12.98;66.34;99183.80;105180;1260;59365;-57
2023/10/20 03:43:45;;;;;;;15.20;11.70;;;;;;;13.04;66.32;99182.46;105145;1260;60406;-56
2023/10/20 03:46:15;;;;;;;16.10;12.40;;;;;;;13.08;66.20;99181.36;105334;1259;63267;-56
2023/10/20 03:48:45;;;;;;;16.30;12.30;;;;;;;13.10;66.27;99179.58;105321;1254;61289;-59
2023/10/20 03:51:13;;;;;;;15.70;13.00;;;;;;;13.08;66.23;99170.99;105338;1260;62446;-58
2023/10/20 03:53:47;;;;;;;17.60;13.20;;;;;;;13.07;66.34;99170.77;105242;1258;59746;-59
2023/10/20 03:56:18;;;;;;;16.80;12.50;;;;;;;13.06;66.41;99174.64;105318;1257;59746;-57
2023/10/20 03:58:50;;;;;;;17.10;11.90;;;;;;;13.08;66.34;99180.77;105242;1260;64878;-57
2023/10/20 04:01:18;;;;;;;18.20;11.70;;;;;;;13.11;66.44;99180.97;105316;1254;61372;-57
2023/10/20 04:03:50;;;;;;;15.30;11.50;;;;;;;13.17;66.71;99177.81;106080;1257;73199;-57
2023/10/20 04:06:20;;;;;;;16.50;11.30;;;;;;;13.22;66.84;99172.48;106623;1257;59768;-57
2023/10/20 04:08:51;;;;;;;14.90;10.70;;;;;;;13.28;67.07;99164.50;105431;1260;63183;-57
2023/10/20 04:11:19;;;;;;;15.10;11.90;;;;;;;13.30;66.88;99159.28;105854;1257;66691;-59
2023/10/20 04:13:51;;;;;;;14.40;11.30;;;;;;;13.27;66.60;99154.70;105818;1260;60171;-57
2023/10/20 04:16:23;;;;;;;15.00;10.00;;;;;;;13.26;66.36;99160.42;105753;1257;63825;-56
2023/10/20 04:18:52;;;;;;;14.10;10.50;;;;;;;13.29;66.36;99168.96;108095;1254;59692;-59
2023/10/20 04:21:20;;;;;;;17.20;11.70;;;;;;;13.29;66.35;99169.59;105273;1254;59611;-54
2023/10/20 04:23:48;;;;;;;17.10;12.00;;;;;;;13.26;66.55;99166.03;105246;1254;64190;-55
2023/10/20 04:26:20;;;;;;;16.10;12.40;;;;;;;13.25;66.76;99166.60;105268;1260;61286;-58
2023/10/20 04:28:51;;;;;;;16.90;12.20;;;;;;;13.23;66.88;99172.96;105922;1257;64879;-55
2023/10/20 04:53:45;;;;;;;17.00;12.80;;;;;;;13.61;67.22;99171.52;104998;1254;61372;-60
2023/10/20 05:01:26;;;;;;;17.20;13.30;;;;;;;13.70;66.82;99172.69;109192;1254;57606;-61
2023/10/20 05:04:10;;;;;;;16.30;13.40;;;;;;;13.67;66.61;99176.17;109123;1254;63322;-59
2023/10/20 05:06:43;;;;;;;15.80;11.80;;;;;;;13.59;66.33;99177.40;109208;1254;61305;-59
2023/10/20 05:09:14;;;;;;;16.90;12.30;;;;;;;13.59;66.35;99174.46;109149;1258;64312;-59
2023/10/20 05:11:42;;;;;;;14.90;11.80;;;;;;;13.62;66.29;99168.64;109182;1254;61013;-57
2023/10/20 05:14:10;;;;;;;16.70;12.40;;;;;;;13.65;66.17;99164.55;107001;1257;59548;-57
2023/10/20 05:16:38;;;;;;;18.30;12.90;;;;;;;13.66;66.31;99161.48;105228;1254;64176;-57
2023/10/20 05:19:05;;;;;;;18.30;12.00;;;;;;;13.65;66.35;99158.91;105487;1254;61355;-56
2023/10/20 05:21:33;;;;;;;17.30;13.50;;;;;;;13.64;66.40;99159.05;105381;1254;63720;-57
2023/10/20 05:24:03;;;;;;;17.90;12.60;;;;;;;13.65;66.70;99155.77;109176;1254;57883;-58
2023/10/20 05:26:31;;;;;;;16.60;11.90;;;;;;;13.71;66.40;99150.88;109066;1257;61126;-58
2023/10/20 05:28:59;;;;;;;16.00;11.40;;;;;;;13.75;66.25;99147.56;109067;1254;64116;-58
2023/10/20 05:31:29;;;;;;;14.40;11.40;;;;;;;13.80;66.25;99144.36;107904;1254;62007;-58
2023/10/20 05:33:57;;;;;;;15.90;11.50;;;;;;;13.81;66.21;99134.77;105118;1259;64469;-59
2023/10/20 05:36:25;;;;;;;17.10;11.60;;;;;;;13.81;66.35;99132.45;105812;1257;59663;-59
2023/10/20 05:38:52;;;;;;;15.20;11.00;;;;;;;13.84;66.64;99130.27;105236;1255;60428;-58
2023/10/20 05:41:20;;;;;;;13.80;9.90;;;;;;;13.86;66.69;99132.25;105250;1257;64615;-60
2023/10/20 05:43:48;;;;;;;14.00;9.60;;;;;;;13.91;66.60;99124.42;105850;1257;72418;-60
2023/10/20 05:46:17;;;;;;;11.20;8.30;;;;;;;13.99;66.64;99132.00;105144;1258;62618;-57
2023/10/20 05:48:46;;;;;;;12.70;9.20;;;;;;;14.03;66.46;99131.02;105188;1256;59828;-59
2023/10/20 05:51:14;;;;;;;12.10;9.30;;;;;;;14.01;66.65;99126.70;105113;1259;59650;-57
2023/10/20 05:53:41;;;;;;;12.70;9.90;;;;;;;14.00;66.81;99125.22;105240;1260;65443;-55
2023/10/20 05:56:09;;;;;;;13.80;9.70;;;;;;;13.97;66.74;99119.39;105295;1257;61355;-57
2023/10/20 05:58:38;;;;;;;13.80;8.30;;;;;;;13.93;66.77;99114.45;105245;1257;63688;-59
2023/10/20 06:01:06;;;;;;;13.60;9.20;;;;;;;13.97;66.62;99108.98;105233;1254;60024;-56
2023/10/20 06:03:34;;;;;;;11.10;8.00;;;;;;;14.02;66.62;99108.79;105462;1260;59819;-57
2023/10/20 06:06:03;;;;;;;12.50;9.00;;;;;;;14.05;66.76;99100.13;105413;1259;64163;-55
2023/10/20 06:08:31;;;;;;;11.00;6.70;;;;;;;14.11;66.94;99096.13;105438;1258;61460;-56
2023/10/20 06:11:03;;;;;;;11.70;7.60;;;;;;;14.13;67.14;99091.23;105142;1256;63747;-59
2023/10/20 06:13:35;;;;;;;10.30;6.40;;;;;;;14.17;67.47;99090.33;108718;1259;57505;-59
2023/10/20 06:16:08;;;;;;;10.20;6.00;;;;;;;14.27;67.46;99094.05;107836;1260;59231;-57
2023/10/20 06:18:40;;;;;;;10.30;5.50;;;;;;;14.40;67.55;99094.52;106070;1259;73619;-57
2023/10/20 06:21:13;;;;;;;8.70;5.70;;;;;;;14.54;67.91;99098.02;105249;1260;60088;-56
2023/10/20 06:23:41;;;;;;;11.50;6.70;;;;;;;14.68;67.89;99106.15;105378;1260;62506;-58
2023/10/20 06:26:09;;;;;;;12.80;6.90;;;;;;;14.74;67.85;99104.73;105374;1257;59768;-58
2023/10/20 06:28:37;;;;;;;11.90;6.90;;;;;;;14.78;68.02;99108.14;105529;1260;59635;-59
2023/10/20 06:31:27;;;;;;;9.40;6.40;;;;;;;14.81;67.93;99102.64;105457;1259;64643;-58
2023/10/20 06:34:40;;;;;;;10.30;6.80;;;;;;;14.87;67.77;99110.27;105206;1258;61513;-58
2023/10/20 06:36:51;;;;;;;11.80;8.20;;;;;;;14.88;67.49;99116.96;105293;1257;62548;-59
2023/10/20 06:39:18;;;;;;;11.70;7.80;;;;;;;14.89;67.45;99117.95;105945;1255;60801;-67
2023/10/20 06:41:47;;;;;;;11.50;7.90;;;;;;;14.91;67.60;99119.62;105842;1257;59356;-57
2023/10/20 06:44:19;;;;;;;13.30;8.30;;;;;;;14.93;67.77;99121.18;105867;1259;62994;-58
2023/10/20 06:46:47;;;;;;;12.90;8.10;;;;;;;14.93;67.67;99120.95;106009;1254;61391;-58
2023/10/20 06:49:18;;;;;;;11.40;6.40;;;;;;;14.96;67.54;99113.23;105907;1258;63766;-57
2023/10/20 06:51:47;;;;;;;9.70;6.40;;;;;;;15.02;67.44;99094.16;109158;1253;57700;-56
2023/10/20 06:54:16;;;;;;;11.80;6.80;;;;;;;15.09;67.47;99093.12;109177;1254;58256;-58
2023/10/20 06:56:44;;;;;;;11.00;7.00;;;;;;;15.14;67.33;99090.29;109139;1254;64122;-61
2023/10/20 06:59:13;;;;;;;12.30;6.80;;;;;;;15.16;67.37;99083.80;109219;1258;61325;-61
2023/10/20 07:01:42;;;;;;;12.20;7.40;;;;;;;15.19;67.26;99082.38;107911;1257;63734;-58
2023/10/20 07:04:12;;;;;;;11.70;7.30;;;;;;;15.20;67.08;99087.27;108471;1256;59665;-59
2023/10/20 07:06:40;;;;;;;12.80;6.50;;;;;;;15.23;66.90;99088.08;105290;1260;59644;-58
2023/10/20 07:09:12;;;;;;;11.50;7.10;;;;;;;15.29;67.04;99092.64;105342;1257;64255;-60
2023/10/20 07:11:40;;;;;;;11.80;7.40;;;;;;;15.37;67.04;99097.06;104969;1259;60286;-60
2023/10/20 07:14:10;;;;;;;12.00;6.90;;;;;;;15.39;66.79;99104.70;105393;1260;72691;-56
2023/10/20 07:16:39;;;;;;;10.00;6.70;;;;;;;15.37;66.89;99100.32;105368;1260;59762;-55
2023/10/20 07:19:07;;;;;;;9.80;6.80;;;;;;;15.36;66.87;99098.23;105274;1254;59614;-55
2023/10/20 07:21:35;;;;;;;10.70;6.40;;;;;;;15.40;66.81;99100.77;105099;1260;64121;-60
2023/10/20 07:24:03;;;;;;;9.10;6.20;;;;;;;15.43;66.75;99091.38;105247;1260;60525;-59
2023/10/20 07:26:30;;;;;;;13.40;7.10;;;;;;;15.46;66.72;99088.73;105605;1254;63673;-58
2023/10/20 07:28:58;;;;;;;12.60;7.50;;;;;;;15.47;66.86;99082.08;105518;1259;60401;-64
2023/10/20 07:31:26;;;;;;;10.10;6.60;;;;;;;15.49;66.97;99082.02;105239;1259;59554;-58
2023/10/20 07:33:54;;;;;;;9.90;6.10;;;;;;;15.47;66.82;99086.29;105468;1251;62895;-59
2023/10/20 07:36:21;;;;;;;9.20;5.50;;;;;;;15.47;66.59;99089.64;105469;1254;61539;-60
2023/10/20 07:38:49;;;;;;;11.70;6.60;;;;;;;15.49;66.60;99094.34;105465;1251;62482;-60
2023/10/20 07:41:17;;;;;;;9.50;5.80;;;;;;;15.48;66.46;99099.63;105570;1253;60519;-60
2023/10/20 07:43:45;;;;;;;12.90;6.70;;;;;;;15.41;66.41;99097.19;105541;1251;60562;-59
2023/10/20 07:46:16;;;;;;;9.60;6.50;;;;;;;15.34;66.44;99100.86;105562;1256;65256;-59
2023/10/20 07:48:44;;;;;;;10.90;6.60;;;;;;;15.27;66.50;99104.80;105630;1256;61459;-60
2023/10/20 07:51:12;;;;;;;14.20;6.30;;;;;;;15.22;66.44;99110.41;105371;1256;74879;-58
2023/10/20 07:53:40;;;;;;;10.50;5.70;;;;;;;15.20;66.46;99112.50;105211;1254;60489;-57
2023/10/20 07:56:08;;;;;;;10.20;5.90;;;;;;;15.17;66.64;99108.10;105505;1251;60715;-62
2023/10/20 07:58:38;;;;;;;11.00;5.90;;;;;;;15.14;66.76;99103.36;105547;1251;65411;-60
2023/10/20 08:01:06;;;;;;;11.00;6.40;;;;;;;15.11;67.15;99101.38;105731;1256;60580;-59
2023/10/20 08:03:34;;;;;;;9.40;6.00;;;;;;;15.12;67.28;99113.48;105848;1256;63690;-58
2023/10/20 08:06:03;;;;;;;8.70;5.40;;;;;;;15.13;67.29;99116.40;105811;1257;60471;-59
2023/10/20 08:08:32;;;;;;;10.10;5.70;;;;;;;15.12;67.24;99120.80;105810;1257;60524;-59
2023/10/20 08:11:03;;;;;;;9.20;5.50;;;;;;;15.08;67.49;99109.48;105786;1251;65142;-59
2023/10/20 08:13:33;;;;;;;8.20;5.80;;;;;;;15.09;67.68;99109.91;105829;1251;61467;-60
2023/10/20 08:16:06;;;;;;;10.10;5.20;;;;;;;15.08;67.88;99109.16;105849;1257;62542;-56
2023/10/20 08:18:34;;;;;;;8.80;5.30;;;;;;;15.06;68.01;99110.56;105676;1255;60596;-60
2023/10/20 08:21:03;;;;;;;9.20;5.50;;;;;;;15.05;68.12;99112.14;105516;1251;60536;-59
2023/10/20 08:23:30;;;;;;;9.70;5.80;;;;;;;15.07;67.96;99112.42;105838;1251;63719;-59
2023/10/20 08:25:58;;;;;;;9.90;5.40;;;;;;;15.11;67.94;99106.74;105570;1251;61943;-59
2023/10/20 08:28:26;;;;;;;9.20;6.60;;;;;;;15.13;68.04;99103.20;105977;1254;65997;-60
2023/10/20 08:31:07;;;;;;;10.20;6.40;;;;;;;15.17;68.09;99094.36;106102;1257;60468;-61
2023/10/20 08:33:35;;;;;;;10.30;6.80;;;;;;;15.16;68.10;99083.52;105528;1257;60600;-60
2023/10/20 08:36:11;;;;;;;12.80;6.60;;;;;;;15.17;68.45;99082.95;105609;1251;66049;-60
2023/10/20 08:38:43;;;;;;;11.50;6.30;;;;;;;15.20;68.48;99087.71;105562;1256;61791;-59
2023/10/20 08:41:17;;;;;;;9.50;5.70;;;;;;;15.26;68.38;99089.02;105511;1254;63878;-59
2023/10/20 08:43:45;;;;;;;11.10;6.90;;;;;;;15.32;68.21;99094.40;105554;1257;60520;-61
2023/10/20 08:46:14;;;;;;;8.50;5.40;;;;;;;15.36;68.10;99111.27;105557;1257;60319;-60
2023/10/20 08:48:46;;;;;;;8.20;6.30;;;;;;;15.35;68.02;99117.35;105618;1254;65777;-60
2023/10/20 08:51:15;;;;;;;12.30;6.30;;;;;;;15.32;68.14;99117.98;105660;1257;60862;-57
2023/10/20 08:53:44;;;;;;;10.70;6.10;;;;;;;15.28;68.35;99116.68;105686;1254;75201;-54
2023/10/20 08:56:12;;;;;;;12.70;6.30;;;;;;;15.26;68.36;99114.81;105528;1256;60558;-55
2023/10/20 08:58:43;;;;;;;9.70;6.00;;;;;;;15.27;68.33;99115.08;105595;1251;60454;-56
2023/10/20 09:01:11;;;;;;;12.10;6.80;;;;;;;15.30;68.40;99112.31;105410;1258;65208;-57
2023/10/20 09:03:42;;;;;;;9.80;6.50;;;;;;;15.34;68.48;99111.20;105530;1254;62066;-58
2023/10/20 09:06:14;;;;;;;9.70;6.10;;;;;;;15.40;68.61;99116.98;105556;1257;64116;-58
2023/10/20 09:08:50;;;;;;;10.40;7.40;;;;;;;15.45;68.69;99116.40;105571;1257;60488;-60
2023/10/20 09:11:25;;;;;;;10.80;7.20;;;;;;;15.48;68.74;99117.95;105493;1251;62486;-59
2023/10/20 09:13:57;;;;;;;11.90;6.30;;;;;;;15.48;68.60;99118.36;106024;1257;65255;-60
2023/10/20 09:16:25;;;;;;;14.30;6.60;;;;;;;15.49;68.52;99117.83;105963;1256;61633;-61
2023/10/20 09:18:53;;;;;;;10.10;6.10;;;;;;;15.55;68.50;99122.04;105962;1255;63786;-61
2023/10/20 09:21:24;;;;;;;11.80;6.70;;;;;;;15.61;68.36;99122.91;105941;1255;60549;-60
2023/10/20 09:23:59;;;;;;;12.60;7.10;;;;;;;15.63;68.32;99123.05;105601;1257;60354;-63
2023/10/20 09:26:31;;;;;;;13.20;7.90;;;;;;;15.62;68.27;99120.73;105874;1252;63786;-61
2023/10/20 09:28:58;;;;;;;10.10;6.40;;;;;;;15.60;68.43;99119.11;105734;1251;60542;-60
2023/10/20 09:31:27;;;;;;;10.90;6.90;;;;;;;15.64;68.27;99119.68;105824;1256;64824;-68
2023/10/20 09:33:55;;;;;;;10.70;6.60;;;;;;;15.72;68.22;99121.65;106031;1256;62667;-61
2023/10/20 09:36:23;;;;;;;10.60;6.50;;;;;;;15.76;68.13;99121.88;105473;1254;60552;-60
2023/10/20 09:38:52;;;;;;;11.30;7.10;;;;;;;15.75;68.11;99117.68;105557;1256;65282;-60
2023/10/20 09:41:24;;;;;;;11.70;7.40;;;;;;;15.71;68.05;99113.40;106198;1256;62616;-59
2023/10/20 09:44:00;;;;;;;10.70;7.00;;;;;;;15.67;68.06;99110.17;106189;1254;62570;-61
2023/10/20 09:47:17;;;;;;;11.70;7.00;;;;;;;15.68;67.99;99105.61;105338;1251;60453;-58
2023/10/20 09:49:45;;;;;;;11.70;6.70;;;;;;;15.73;68.13;99104.16;106188;1253;60642;-60
2023/10/20 09:52:13;;;;;;;12.00;7.00;;;;;;;15.75;68.10;99114.32;105544;1257;74908;-61
2023/10/20 09:54:40;;;;;;;13.30;6.80;;;;;;;15.71;68.08;99114.96;105562;1256;61623;-60
2023/10/20 09:57:08;;;;;;;11.20;7.70;;;;;;;15.65;68.11;99118.35;105302;1257;63802;-59
2023/10/20 09:59:38;;;;;;;10.80;6.90;;;;;;;15.61;68.22;99120.30;105615;1257;60553;-59
2023/10/20 10:02:06;;;;;;;12.50;7.00;;;;;;;15.60;68.14;99118.61;105731;1256;60447;-60
2023/10/20 10:04:39;;;;;;;11.50;6.90;;;;;;;15.62;68.02;99121.70;105735;1254;65552;-60
2023/10/20 10:07:09;;;;;;;14.30;7.70;;;;;;;15.61;68.05;99116.21;105570;1257;60386;-60
2023/10/20 10:09:43;;;;;;;11.70;7.60;;;;;;;15.59;68.33;99114.32;105477;1257;63781;-60
2023/10/20 10:12:14;;;;;;;11.60;8.10;;;;;;;15.59;68.60;99115.84;105685;1255;60485;-61
2023/10/20 10:15:14;;;;;;;11.50;7.20;;;;;;;15.64;68.71;99116.98;105553;1252;60536;-60
2023/10/20 10:17:46;;;;;;;11.80;7.20;;;;;;;15.73;68.65;99110.13;106049;1251;64842;-65
2023/10/20 10:20:27;;;;;;;9.90;6.00;;;;;;;15.84;68.60;99103.27;105571;1260;62029;-64
2023/10/20 10:23:04;;;;;;;11.60;7.00;;;;;;;15.92;68.35;99099.36;105999;1256;63688;-60
2023/10/20 10:25:35;;;;;;;10.80;6.60;;;;;;;15.95;68.22;99100.07;105760;1256;60488;-60
2023/10/20 10:28:16;;;;;;;10.90;6.90;;;;;;;15.93;68.07;99107.55;105804;1258;60360;-59
2023/10/20 10:30:48;;;;;;;11.90;7.40;;;;;;;15.90;68.00;99107.77;105478;1254;65662;-64
2023/10/20 10:33:20;;;;;;;13.40;6.50;;;;;;;15.92;67.73;99104.54;105435;1257;70714;-60
2023/10/20 10:36:03;;;;;;;13.30;7.40;;;;;;;15.93;67.68;99109.01;106878;1257;64140;-60
2023/10/20 10:38:45;;;;;;;11.50;7.90;;;;;;;15.95;67.89;99108.78;105882;1253;60542;-61
2023/10/20 10:41:14;;;;;;;12.10;8.20;;;;;;;15.94;68.03;99109.23;105546;1251;60604;-61
2023/10/20 10:43:55;;;;;;;14.20;7.90;;;;;;;15.93;67.97;99104.35;105977;1252;64906;-61
2023/10/20 10:46:34;;;;;;;10.10;7.30;;;;;;;15.91;67.93;99104.62;105491;1251;61568;-61
2023/10/20 10:49:09;;;;;;;10.70;7.20;;;;;;;15.94;67.86;99108.57;106426;1257;63841;-63
2023/10/20 10:51:46;;;;;;;13.50;6.90;;;;;;;15.98;67.90;99111.18;105577;1257;62611;-60
2023/10/20 10:54:17;;;;;;;13.60;7.00;;;;;;;16.02;67.94;99124.08;105496;1251;61500;-60
2023/10/20 10:56:45;;;;;;;12.70;6.90;;;;;;;16.01;67.86;99127.98;106117;1256;67503;-62
2023/10/20 10:59:14;;;;;;;10.90;6.20;;;;;;;15.98;67.93;99121.96;105405;1257;60780;-58
2023/10/20 11:01:41;;;;;;;9.10;6.10;;;;;;;15.94;67.81;99125.80;105510;1256;62638;-60
2023/10/20 11:04:10;;;;;;;13.00;6.10;;;;;;;15.91;67.80;99122.54;105246;1255;60721;-60
2023/10/20 11:06:38;;;;;;;10.40;5.60;;;;;;;15.88;67.86;99124.42;105522;1256;60543;-62
2023/10/20 11:09:13;;;;;;;8.90;6.10;;;;;;;15.88;68.05;99125.92;105134;1253;64991;-62
2023/10/20 11:11:46;;;;;;;10.20;5.90;;;;;;;15.91;68.23;99119.48;105416;1257;60433;-63
2023/10/20 11:14:18;;;;;;;10.80;6.10;;;;;;;15.97;68.31;99113.99;105314;1254;64692;-62
2023/10/20 11:16:49;;;;;;;11.00;6.50;;;;;;;15.99;68.31;99109.02;106048;1257;60554;-62
2023/10/20 11:19:17;;;;;;;11.20;6.40;;;;;;;15.99;68.35;99103.80;106201;1257;60604;-60
2023/10/20 11:21:48;;;;;;;11.20;6.40;;;;;;;16.06;68.43;99101.02;105458;1254;63659;-61
2023/10/20 11:24:34;;;;;;;10.50;6.50;;;;;;;16.18;68.44;99095.83;105927;1257;60517;-61
2023/10/20 11:27:05;;;;;;;10.60;7.20;;;;;;;16.33;68.55;99092.19;105819;1263;63844;-62
2023/10/20 11:29:33;;;;;;;9.90;6.70;;;;;;;16.45;68.24;99094.80;105680;1251;60420;-60
2023/10/20 11:32:20;;;;;;;13.80;7.10;;;;;;;16.52;68.16;99098.63;105643;1257;60597;-62
2023/10/20 11:34:50;;;;;;;15.20;7.10;;;;;;;16.56;67.74;99095.78;106132;1257;65310;-62
2023/10/20 11:37:18;;;;;;;13.00;7.50;;;;;;;16.57;67.61;99098.33;105441;1255;61412;-64
2023/10/20 11:39:45;;;;;;;11.80;7.10;;;;;;;16.62;67.45;99098.04;105367;1264;63703;-59
2023/10/20 11:42:14;;;;;;;10.70;6.70;;;;;;;16.70;67.34;99099.85;106338;1256;60475;-61
2023/10/20 11:44:45;;;;;;;10.80;7.20;;;;;;;16.78;67.25;99093.66;105492;1257;60446;-61
2023/10/20 11:47:13;;;;;;;12.30;7.20;;;;;;;16.84;67.17;99089.40;105470;1256;75440;-60
2023/10/20 11:49:42;;;;;;;10.80;7.10;;;;;;;16.89;67.14;99096.70;105844;1256;63758;-57
2023/10/20 11:52:10;;;;;;;10.10;6.00;;;;;;;16.91;66.90;99104.63;105842;1257;74854;-61
2023/10/20 11:54:38;;;;;;;11.10;6.50;;;;;;;16.97;66.77;99113.08;105638;1254;60571;-61
2023/10/20 11:57:07;;;;;;;13.30;6.50;;;;;;;17.03;66.52;99112.11;105420;1256;60527;-59